createdAt,value
2023-02-06T00:00:55.012Z,6.35
2023-02-06T00:03:21.849Z,6.60
2023-02-06T00:05:59.781Z,6.07
2023-02-06T00:08:27.456Z,5.20
2023-02-06T00:10:55.089Z,5.80
2023-02-06T00:13:22.135Z,7.78
2023-02-06T00:15:49.947Z,6.57
2023-02-06T00:18:18.901Z,6.13
2023-02-06T00:20:45.645Z,5.70
2023-02-06T00:23:12.412Z,6.30
2023-02-06T00:25:39.162Z,6.18
2023-02-06T00:28:06.042Z,5.38
2023-02-06T00:30:32.840Z,5.95
2023-02-06T00:33:07.065Z,7.68
2023-02-06T00:35:34.731Z,6.68
2023-02-06T00:38:02.411Z,6.40
2023-02-06T00:40:29.806Z,7.13
2023-02-06T00:42:56.605Z,6.10
2023-02-06T00:45:23.492Z,5.72
2023-02-06T00:47:50.264Z,5.38
2023-02-06T00:50:18.499Z,5.80
2023-02-06T00:52:45.921Z,6.13
2023-02-06T00:55:12.927Z,4.97
2023-02-06T00:57:39.668Z,7.47
2023-02-06T01:00:08.714Z,6.05
2023-02-06T01:02:35.729Z,5.47
2023-02-06T01:05:02.866Z,5.97
2023-02-06T01:07:29.812Z,6.25
2023-02-06T01:09:58.917Z,7.10
2023-02-06T01:12:25.724Z,5.57
2023-02-06T01:14:53.469Z,7.03
2023-02-06T01:17:20.201Z,5.65
2023-02-06T01:19:46.953Z,6.57
2023-02-06T01:22:13.779Z,4.80
2023-02-06T01:24:40.576Z,6.60
2023-02-06T01:27:10.669Z,6.85
2023-02-06T01:29:38.445Z,6.53
2023-02-06T01:32:05.089Z,5.32
2023-02-06T01:34:31.817Z,5.28
2023-02-06T01:36:58.560Z,6.80
2023-02-06T01:39:25.329Z,7.00
2023-02-06T01:41:52.101Z,6.25
2023-02-06T01:44:22.446Z,5.50
2023-02-06T01:46:54.753Z,7.43
2023-02-06T01:49:26.082Z,4.78
2023-02-06T01:52:15.969Z,6.70
2023-02-06T01:54:50.596Z,6.38
2023-02-06T01:57:18.467Z,5.57
2023-02-06T01:59:51.100Z,5.80
2023-02-06T02:02:18.370Z,5.60
2023-02-06T02:04:46.865Z,5.40
2023-02-06T02:07:22.328Z,6.35
2023-02-06T02:09:49.068Z,5.57
2023-02-06T02:12:18.616Z,5.38
2023-02-06T02:14:47.656Z,4.88
2023-02-06T02:17:44.797Z,4.22
2023-02-06T02:20:39.545Z,4.82
2023-02-06T02:23:26.180Z,4.68
2023-02-06T02:26:04.418Z,6.22
2023-02-06T02:28:34.180Z,6.15
2023-02-06T02:31:32.534Z,6.60
2023-02-06T02:34:18.385Z,5.88
2023-02-06T02:36:56.069Z,6.20
2023-02-06T02:39:47.178Z,6.45
2023-02-06T02:42:35.892Z,6.73
2023-02-06T02:45:23.013Z,5.57
2023-02-06T02:47:58.370Z,5.82
2023-02-06T02:50:26.445Z,5.77
2023-02-06T02:52:53.387Z,4.95
2023-02-06T02:55:22.998Z,5.53
2023-02-06T02:58:01.425Z,5.07
2023-02-06T03:00:30.688Z,4.90
2023-02-06T03:02:58.390Z,6.47
2023-02-06T03:05:26.897Z,5.03
2023-02-06T03:08:25.105Z,5.43
2023-02-06T03:11:14.760Z,7.75
2023-02-06T03:14:06.005Z,4.95
2023-02-06T03:17:03.056Z,6.90
2023-02-06T03:19:34.320Z,4.50
2023-02-06T03:22:03.526Z,5.93
2023-02-06T03:24:38.347Z,5.32
2023-02-06T03:27:13.407Z,5.38
2023-02-06T03:29:44.773Z,3.83
2023-02-06T03:32:24.036Z,5.13
2023-02-06T03:35:06.681Z,5.75
2023-02-06T03:37:35.357Z,4.97
2023-02-06T03:40:03.158Z,4.97
2023-02-06T03:42:30.816Z,4.95
2023-02-06T03:45:07.724Z,6.28
2023-02-06T03:47:37.863Z,6.70
2023-02-06T03:50:09.538Z,4.37
2023-02-06T03:52:40.912Z,5.47
2023-02-06T03:55:13.587Z,5.78
2023-02-06T03:57:42.961Z,4.20
2023-02-06T04:00:12.473Z,6.30
2023-02-06T04:02:40.166Z,5.35
2023-02-06T04:05:08.176Z,6.13
2023-02-06T04:07:36.989Z,6.22
2023-02-06T04:10:04.535Z,4.80
2023-02-06T04:12:31.396Z,5.85
2023-02-06T04:14:58.071Z,5.05
2023-02-06T04:17:43.075Z,5.93
2023-02-06T04:20:13.213Z,5.88
2023-02-06T04:22:40.571Z,6.60
2023-02-06T04:25:09.706Z,5.32
2023-02-06T04:27:37.299Z,6.03
2023-02-06T04:30:05.240Z,6.37
2023-02-06T04:32:32.007Z,5.97
2023-02-06T04:35:00.915Z,6.67
2023-02-06T04:37:27.656Z,5.57
2023-02-06T04:39:54.364Z,6.28
2023-02-06T04:42:21.122Z,5.37
2023-02-06T04:44:48.854Z,4.90
2023-02-06T04:47:15.589Z,6.18
2023-02-06T04:49:42.366Z,6.43
2023-02-06T04:52:09.105Z,4.05
2023-02-06T04:54:35.891Z,5.43
2023-02-06T04:57:03.622Z,4.50
2023-02-06T04:59:30.714Z,5.15
2023-02-06T05:01:57.377Z,5.50
2023-02-06T05:04:24.092Z,4.05
2023-02-06T05:06:50.792Z,4.47
2023-02-06T05:09:17.488Z,5.37
2023-02-06T05:11:44.235Z,5.65
2023-02-06T05:14:10.902Z,5.22
2023-02-06T05:16:37.620Z,5.95
2023-02-06T05:19:04.362Z,5.45
2023-02-06T05:21:31.112Z,5.60
2023-02-06T05:23:58.056Z,5.55
2023-02-06T05:26:25.034Z,5.40
2023-02-06T05:28:52.087Z,8.57
2023-02-06T05:31:20.207Z,5.95
2023-02-06T05:33:52.892Z,5.72
2023-02-06T05:36:20.673Z,5.22
2023-02-06T05:38:50.176Z,4.97
2023-02-06T05:41:17.087Z,5.18
2023-02-06T05:43:43.954Z,4.85
2023-02-06T05:46:12.774Z,5.57
2023-02-06T05:48:39.970Z,4.85
2023-02-06T05:51:06.861Z,4.00
2023-02-06T05:53:33.579Z,6.13
2023-02-06T05:56:00.405Z,5.18
2023-02-06T05:58:27.186Z,4.07
2023-02-06T06:00:53.913Z,7.23
2023-02-06T06:03:22.878Z,4.13
2023-02-06T06:05:50.124Z,6.88
2023-02-06T06:08:17.007Z,4.55
2023-02-06T06:10:43.712Z,5.18
2023-02-06T06:13:10.496Z,4.75
2023-02-06T06:15:37.843Z,4.45
2023-02-06T06:18:04.930Z,2.80
2023-02-06T06:20:32.535Z,3.40
2023-02-06T06:22:59.236Z,3.95
2023-02-06T06:25:26.061Z,3.53
2023-02-06T06:27:55.250Z,4.35
2023-02-06T06:30:21.934Z,2.75
2023-02-06T06:32:48.670Z,4.07
2023-02-06T06:35:17.564Z,2.80
2023-02-06T06:37:44.516Z,3.55
2023-02-06T06:40:11.772Z,5.43
2023-02-06T06:42:40.617Z,7.30
2023-02-06T06:45:08.581Z,5.90
2023-02-06T06:47:35.394Z,8.20
2023-02-06T06:50:02.086Z,7.25
2023-02-06T06:52:29.750Z,8.55
2023-02-06T06:54:56.540Z,6.35
2023-02-06T06:57:24.001Z,4.63
2023-02-06T06:59:50.872Z,8.15
2023-02-06T07:02:19.530Z,5.82
2023-02-06T07:04:46.416Z,4.65
2023-02-06T07:07:13.206Z,5.75
2023-02-06T07:09:39.957Z,4.35
2023-02-06T07:12:23.908Z,3.28
2023-02-06T07:14:50.688Z,4.57
2023-02-06T07:17:18.574Z,6.10
2023-02-06T07:19:48.101Z,4.30
2023-02-06T07:22:15.842Z,3.17
2023-02-06T07:24:44.687Z,4.93
2023-02-06T07:27:13.768Z,6.55
2023-02-06T07:29:43.325Z,5.72
2023-02-06T07:32:12.574Z,3.97
2023-02-06T07:34:40.584Z,5.17
2023-02-06T07:37:07.348Z,4.40
2023-02-06T07:39:34.129Z,3.93
2023-02-06T07:42:03.157Z,3.78
2023-02-06T07:44:42.963Z,3.57
2023-02-06T07:47:10.705Z,4.07
2023-02-06T07:49:39.532Z,4.05
2023-02-06T07:52:06.431Z,7.00
2023-02-06T07:54:35.507Z,4.53
2023-02-06T07:57:03.297Z,3.13
2023-02-06T07:59:32.201Z,3.65
2023-02-06T08:02:00.285Z,5.07
2023-02-06T08:04:29.313Z,3.67
2023-02-06T08:06:57.128Z,4.50
2023-02-06T08:09:23.794Z,4.03
2023-02-06T08:11:50.522Z,4.93
2023-02-06T08:14:17.279Z,4.75
2023-02-06T08:16:44.533Z,4.57
2023-02-06T08:19:13.631Z,6.05
2023-02-06T08:21:40.435Z,4.07
2023-02-06T08:24:09.593Z,4.75
2023-02-06T08:26:36.338Z,5.68
2023-02-06T08:29:07.501Z,5.72
2023-02-06T08:31:38.070Z,6.05
2023-02-06T08:34:06.564Z,5.70
2023-02-06T08:36:35.618Z,6.97
2023-02-06T08:39:03.793Z,6.78
2023-02-06T08:41:38.701Z,7.43
2023-02-06T08:44:09.152Z,7.00
2023-02-06T08:46:36.048Z,4.67
2023-02-06T08:49:13.523Z,6.60
2023-02-06T08:51:40.466Z,6.70
2023-02-06T08:54:11.762Z,6.57
2023-02-06T08:56:38.591Z,8.57
2023-02-06T08:59:07.346Z,7.97
2023-02-06T09:01:36.467Z,7.82
2023-02-06T09:04:07.332Z,4.10
2023-02-06T09:06:40.517Z,6.60
2023-02-06T09:09:08.619Z,8.13
2023-02-06T09:11:36.115Z,8.60
2023-02-06T09:14:05.010Z,9.40
2023-02-06T09:16:33.435Z,13.43
2023-02-06T09:19:01.652Z,8.30
2023-02-06T09:21:33.391Z,9.43
2023-02-06T09:24:05.325Z,6.75
2023-02-06T09:26:38.879Z,8.30
2023-02-06T09:29:10.068Z,9.45
2023-02-06T09:31:42.029Z,5.88
2023-02-06T09:34:09.506Z,7.78
2023-02-06T09:36:37.535Z,9.48
2023-02-06T09:39:06.177Z,7.82
2023-02-06T09:41:41.525Z,8.63
2023-02-06T09:44:20.835Z,7.60
2023-02-06T09:46:57.361Z,5.53
2023-02-06T09:49:46.101Z,7.10
2023-02-06T09:52:25.599Z,6.53
2023-02-06T09:54:55.120Z,7.90
2023-02-06T09:57:43.757Z,7.53
2023-02-06T10:00:53.403Z,6.80
2023-02-06T10:03:34.667Z,6.50
2023-02-06T10:06:07.212Z,7.55
2023-02-06T10:08:55.949Z,6.95
2023-02-06T10:11:58.087Z,7.40
2023-02-06T10:14:46.625Z,6.30
2023-02-06T10:17:34.986Z,8.10
2023-02-06T10:20:04.834Z,4.70
2023-02-06T10:22:39.968Z,6.53
2023-02-06T10:25:21.073Z,7.25
2023-02-06T10:27:56.503Z,5.35
2023-02-06T10:30:44.931Z,6.70
2023-02-06T10:33:40.866Z,5.97
2023-02-06T10:36:10.650Z,7.93
2023-02-06T10:38:59.188Z,6.50
2023-02-06T10:41:31.018Z,7.05
2023-02-06T10:44:17.712Z,7.18
2023-02-06T10:46:48.367Z,5.68
2023-02-06T10:49:30.295Z,5.82
2023-02-06T10:52:07.547Z,6.20
2023-02-06T10:54:38.720Z,8.75
2023-02-06T10:57:14.046Z,6.63
2023-02-06T10:59:48.010Z,7.13
2023-02-06T11:02:19.882Z,6.03
2023-02-06T11:04:59.025Z,7.07
2023-02-06T11:07:54.989Z,5.85
2023-02-06T11:10:24.296Z,5.80
2023-02-06T11:13:21.032Z,6.30
2023-02-06T11:15:52.577Z,7.20
2023-02-06T11:18:27.786Z,6.18
2023-02-06T11:20:56.482Z,10.00
2023-02-06T11:23:26.098Z,7.65
2023-02-06T11:26:14.669Z,9.80
2023-02-06T11:28:56.496Z,7.45
2023-02-06T11:31:45.301Z,6.72
2023-02-06T11:34:30.156Z,6.53
2023-02-06T11:37:21.427Z,7.18
2023-02-06T11:39:50.349Z,8.50
2023-02-06T11:42:22.407Z,8.80
2023-02-06T11:44:49.705Z,7.70
2023-02-06T11:47:37.712Z,7.60
2023-02-06T11:50:14.762Z,9.43
2023-02-06T11:52:46.851Z,7.43
2023-02-06T11:55:27.399Z,8.97
2023-02-06T11:58:05.993Z,7.88
2023-02-06T12:00:33.801Z,9.33
2023-02-06T12:03:03.719Z,9.15
2023-02-06T12:05:35.493Z,8.07
2023-02-06T12:08:10.266Z,11.32
2023-02-06T12:10:42.986Z,9.95
2023-02-06T12:13:20.555Z,10.00
2023-02-06T12:15:53.226Z,9.57
2023-02-06T12:18:27.890Z,12.43
2023-02-06T12:20:59.712Z,9.80
2023-02-06T12:23:32.637Z,8.73
2023-02-06T12:26:03.722Z,9.63
2023-02-06T12:28:36.916Z,8.98
2023-02-06T12:31:11.783Z,10.35
2023-02-06T12:33:55.056Z,8.30
2023-02-06T12:36:39.688Z,11.15
2023-02-06T12:39:17.711Z,9.65
2023-02-06T12:42:15.432Z,7.93
2023-02-06T12:44:57.303Z,9.32
2023-02-06T12:47:38.800Z,10.85
2023-02-06T12:50:25.669Z,8.32
2023-02-06T12:53:04.171Z,8.60
2023-02-06T12:56:02.668Z,10.80
2023-02-06T12:58:44.476Z,7.38
2023-02-06T13:01:41.027Z,7.70
2023-02-06T13:04:15.983Z,7.15
2023-02-06T13:06:56.116Z,10.50
2023-02-06T13:10:00.618Z,7.70
2023-02-06T13:12:29.840Z,10.00
2023-02-06T13:15:04.309Z,8.48
2023-02-06T13:17:36.799Z,6.70
2023-02-06T13:20:15.075Z,7.37
2023-02-06T13:22:50.813Z,5.67
2023-02-06T13:25:30.557Z,8.10
2023-02-06T13:28:22.083Z,7.60
2023-02-06T13:30:50.696Z,6.90
2023-02-06T13:33:23.940Z,6.90
2023-02-06T13:35:59.892Z,6.85
2023-02-06T13:38:37.986Z,7.15
2023-02-06T13:41:16.397Z,6.07
2023-02-06T13:44:29.605Z,7.22
2023-02-06T13:47:20.362Z,9.73
2023-02-06T13:50:08.528Z,7.90
2023-02-06T13:52:49.365Z,4.82
2023-02-06T13:55:34.726Z,8.30
2023-02-06T13:58:20.458Z,6.55
2023-02-06T14:00:50.406Z,6.60
2023-02-06T14:03:26.102Z,6.80
2023-02-06T14:06:20.698Z,5.93
2023-02-06T14:09:02.476Z,7.40
2023-02-06T14:12:03.658Z,7.43
2023-02-06T14:15:06.938Z,7.35
2023-02-06T14:18:11.133Z,6.90
2023-02-06T14:20:38.764Z,5.45
2023-02-06T14:23:32.828Z,6.75
2023-02-06T14:26:12.853Z,7.15
2023-02-06T14:28:48.765Z,5.95
2023-02-06T14:31:29.555Z,5.38
2023-02-06T14:34:12.309Z,7.07
2023-02-06T14:36:51.746Z,5.43
2023-02-06T14:39:36.040Z,6.07
2023-02-06T14:42:16.349Z,7.90
2023-02-06T14:44:46.073Z,6.47
2023-02-06T14:47:24.789Z,6.18
2023-02-06T14:49:53.748Z,6.87
2023-02-06T14:52:25.557Z,10.32
2023-02-06T14:54:52.421Z,6.27
2023-02-06T14:57:23.610Z,6.60
2023-02-06T15:00:04.319Z,10.18
2023-02-06T15:02:34.885Z,6.93
2023-02-06T15:05:06.465Z,7.07
2023-02-06T15:07:36.479Z,8.63
2023-02-06T15:10:15.989Z,8.07
2023-02-06T15:12:51.995Z,7.68
2023-02-06T15:15:25.257Z,11.30
2023-02-06T15:18:04.580Z,8.23
2023-02-06T15:20:36.948Z,9.05
2023-02-06T15:23:17.001Z,7.97
2023-02-06T15:26:02.477Z,9.35
2023-02-06T15:28:32.428Z,9.43
2023-02-06T15:31:00.998Z,7.23
2023-02-06T15:33:33.753Z,6.85
2023-02-06T15:36:03.219Z,7.65
2023-02-06T15:38:33.303Z,6.72
2023-02-06T15:41:06.955Z,7.80
2023-02-06T15:43:35.441Z,8.90
2023-02-06T15:46:04.387Z,4.90
2023-02-06T15:48:35.398Z,8.68
2023-02-06T15:51:48.879Z,9.20
2023-02-06T15:54:20.790Z,9.33
2023-02-06T15:56:51.237Z,8.60
2023-02-06T15:59:24.834Z,7.68
2023-02-06T16:01:54.338Z,8.55
2023-02-06T16:04:24.128Z,8.02
2023-02-06T16:07:07.028Z,9.13
2023-02-06T16:09:42.225Z,6.43
2023-02-06T16:12:09.802Z,9.97
2023-02-06T16:14:40.107Z,7.03
2023-02-06T16:17:12.696Z,7.57
2023-02-06T16:19:56.103Z,6.47
2023-02-06T16:22:27.690Z,7.00
2023-02-06T16:25:12.783Z,6.47
2023-02-06T16:27:45.146Z,7.38
2023-02-06T16:30:21.065Z,9.25
2023-02-06T16:32:48.100Z,6.85
2023-02-06T16:35:15.171Z,6.43
2023-02-06T16:37:42.035Z,6.63
2023-02-06T16:40:09.283Z,6.90
2023-02-06T16:42:38.558Z,6.73
2023-02-06T16:45:15.590Z,7.32
2023-02-06T16:47:42.428Z,6.13
2023-02-06T16:50:10.617Z,8.80
2023-02-06T16:52:40.706Z,8.00
2023-02-06T16:55:16.779Z,6.85
2023-02-06T16:57:45.084Z,6.47
2023-02-06T17:00:23.797Z,8.65
2023-02-06T17:02:53.804Z,8.30
2023-02-06T17:05:27.222Z,6.97
2023-02-06T17:07:54.219Z,7.53
2023-02-06T17:10:26.617Z,9.23
2023-02-06T17:12:53.992Z,7.35
2023-02-06T17:15:21.187Z,6.75
2023-02-06T17:17:48.136Z,5.67
2023-02-06T17:20:29.786Z,7.90
2023-02-06T17:22:57.402Z,8.02
2023-02-06T17:25:25.158Z,8.30
2023-02-06T17:27:53.669Z,7.10
2023-02-06T17:30:22.899Z,6.72
2023-02-06T17:32:49.734Z,7.45
2023-02-06T17:35:19.625Z,6.30
2023-02-06T17:37:49.200Z,6.87
2023-02-06T17:40:23.418Z,6.05
2023-02-06T17:42:53.908Z,5.90
2023-02-06T17:45:21.240Z,5.45
2023-02-06T17:47:48.420Z,6.45
2023-02-06T17:50:18.342Z,5.55
2023-02-06T17:52:46.355Z,4.85
2023-02-06T17:55:14.367Z,6.20
2023-02-06T17:57:41.426Z,5.97
2023-02-06T18:00:13.839Z,6.47
2023-02-06T18:02:40.696Z,7.57
2023-02-06T18:05:08.221Z,6.25
2023-02-06T18:07:35.151Z,6.75
2023-02-06T18:10:02.023Z,5.07
2023-02-06T18:12:28.965Z,5.70
2023-02-06T18:14:55.758Z,7.13
2023-02-06T18:17:23.723Z,5.00
2023-02-06T18:19:50.581Z,4.57
2023-02-06T18:22:19.745Z,4.60
2023-02-06T18:24:47.997Z,5.30
2023-02-06T18:27:15.894Z,5.07
2023-02-06T18:29:49.856Z,6.17
2023-02-06T18:32:19.872Z,6.03
2023-02-06T18:34:48.960Z,6.00
2023-02-06T18:37:16.149Z,6.78
2023-02-06T18:39:43.376Z,4.93
2023-02-06T18:42:31.121Z,5.80
2023-02-06T18:44:58.056Z,6.18
2023-02-06T18:47:26.866Z,6.28
2023-02-06T18:49:55.958Z,5.07
2023-02-06T18:52:23.132Z,5.35
2023-02-06T18:54:49.974Z,5.93
2023-02-06T18:57:17.210Z,5.47
2023-02-06T18:59:46.929Z,5.45
2023-02-06T19:02:20.921Z,4.77
2023-02-06T19:04:47.974Z,7.65
2023-02-06T19:07:16.142Z,5.47
2023-02-06T19:09:43.279Z,5.30
2023-02-06T19:12:12.198Z,6.38
2023-02-06T19:14:39.873Z,5.55
2023-02-06T19:17:06.770Z,4.38
2023-02-06T19:19:33.538Z,4.23
2023-02-06T19:22:00.333Z,5.97
2023-02-06T19:24:28.282Z,4.35
2023-02-06T19:26:56.366Z,5.20
2023-02-06T19:29:34.703Z,6.13
2023-02-06T19:32:06.734Z,6.80
2023-02-06T19:34:36.493Z,5.68
2023-02-06T19:37:04.873Z,5.93
2023-02-06T19:39:35.675Z,4.68
2023-02-06T19:42:06.383Z,6.53
2023-02-06T19:44:33.993Z,6.50
2023-02-06T19:47:00.787Z,7.55
2023-02-06T19:49:28.465Z,5.43
2023-02-06T19:51:55.281Z,5.82
2023-02-06T19:54:24.510Z,5.28
2023-02-06T19:56:52.175Z,4.95
2023-02-06T19:59:22.078Z,5.40
2023-02-06T20:01:55.175Z,4.75
2023-02-06T20:04:24.596Z,7.13
2023-02-06T20:06:51.804Z,6.20
2023-02-06T20:09:20.572Z,7.90
2023-02-06T20:11:48.963Z,5.43
2023-02-06T20:14:17.181Z,5.15
2023-02-06T20:16:45.119Z,6.03
2023-02-06T20:19:15.618Z,5.15
2023-02-06T20:21:45.910Z,5.90
2023-02-06T20:24:15.554Z,4.72
2023-02-06T20:26:43.326Z,6.00
2023-02-06T20:29:23.972Z,5.07
2023-02-06T20:31:51.273Z,5.80
2023-02-06T20:34:20.162Z,5.43
2023-02-06T20:36:55.405Z,6.00
2023-02-06T20:39:22.472Z,7.45
2023-02-06T20:41:50.259Z,5.63
2023-02-06T20:44:18.658Z,6.07
2023-02-06T20:46:46.738Z,6.47
2023-02-06T20:49:28.724Z,6.03
2023-02-06T20:51:58.010Z,6.72
2023-02-06T20:54:27.162Z,6.90
2023-02-06T20:56:53.983Z,6.50
2023-02-06T20:59:21.285Z,5.82
2023-02-06T21:01:51.612Z,7.13
2023-02-06T21:04:19.668Z,6.73
2023-02-06T21:06:48.456Z,6.30
2023-02-06T21:09:15.899Z,6.80
2023-02-06T21:11:45.693Z,5.88
2023-02-06T21:14:14.684Z,7.72
2023-02-06T21:16:44.210Z,8.10
2023-02-06T21:19:13.180Z,7.00
2023-02-06T21:21:40.493Z,7.28
2023-02-06T21:24:08.590Z,7.28
2023-02-06T21:26:36.245Z,8.20
2023-02-06T21:29:06.021Z,7.15
2023-02-06T21:31:37.031Z,7.43
2023-02-06T21:34:11.525Z,7.75
2023-02-06T21:36:41.990Z,6.70
2023-02-06T21:39:09.878Z,8.13
2023-02-06T21:41:37.638Z,8.40
2023-02-06T21:44:04.877Z,6.63
2023-02-06T21:46:31.861Z,7.43
2023-02-06T21:48:58.884Z,7.82
2023-02-06T21:51:28.485Z,6.68
2023-02-06T21:53:56.389Z,8.57
2023-02-06T21:56:26.658Z,8.55
2023-02-06T21:58:55.174Z,8.77
2023-02-06T22:01:28.495Z,6.22
2023-02-06T22:03:56.886Z,7.15
2023-02-06T22:06:23.933Z,8.68
2023-02-06T22:08:55.711Z,8.18
2023-02-06T22:11:24.590Z,6.68
2023-02-06T22:13:53.452Z,7.40
2023-02-06T22:16:22.169Z,6.90
2023-02-06T22:18:49.689Z,7.45
2023-02-06T22:21:19.951Z,9.50
2023-02-06T22:23:48.567Z,6.22
2023-02-06T22:26:17.461Z,8.43
2023-02-06T22:28:46.682Z,8.40
2023-02-06T22:31:21.065Z,8.20
2023-02-06T22:33:48.831Z,8.38
2023-02-06T22:36:19.887Z,6.85
2023-02-06T22:38:48.040Z,7.15
2023-02-06T22:41:16.570Z,7.15
2023-02-06T22:43:45.052Z,8.17
2023-02-06T22:46:33.921Z,6.20
2023-02-06T22:49:01.313Z,8.57
2023-02-06T22:51:28.622Z,7.57
2023-02-06T22:53:55.461Z,6.05
2023-02-06T22:56:37.896Z,6.95
2023-02-06T22:59:09.166Z,5.72
2023-02-06T23:01:43.154Z,7.15
2023-02-06T23:04:21.989Z,7.32
2023-02-06T23:06:49.640Z,6.80
2023-02-06T23:09:25.106Z,7.03
2023-02-06T23:11:52.752Z,8.10
2023-02-06T23:14:19.842Z,6.43
2023-02-06T23:16:48.541Z,6.93
2023-02-06T23:19:17.531Z,7.68
2023-02-06T23:21:48.334Z,7.55
2023-02-06T23:24:16.655Z,6.78
2023-02-06T23:26:45.993Z,5.95
2023-02-06T23:29:15.768Z,7.80
2023-02-06T23:31:43.576Z,8.02
2023-02-06T23:34:11.577Z,6.60
2023-02-06T23:36:38.366Z,7.00
2023-02-06T23:39:05.377Z,7.35
2023-02-06T23:41:32.952Z,8.93
2023-02-06T23:44:07.342Z,8.75
2023-02-06T23:46:38.213Z,8.40
2023-02-06T23:49:06.303Z,8.60
2023-02-06T23:51:35.011Z,11.05
2023-02-06T23:54:02.197Z,10.35
2023-02-06T23:56:30.215Z,9.97
2023-02-06T23:58:58.586Z,8.75
